Flight Track Log - Related Links

Times and Time Zones

All times are in EDT time to prevent confusion due to time zone crossing. See the CSN3619 flight status page for this flight to view local times or setup timezone preferences in your user account.

Time Position Orientation Groundspeed Altitude Reporting Facility
EDT Latitude Longitude Course Direction KTS MPH feet Rate Location/Type
Thu 03:46:00 AM 34.6045 113.7537 320° Northwest  Level Estimated
Thu 03:47:00 AM 34.6893 113.6663 320° Northwest  Level Estimated
Thu 03:48:00 AM 34.7740 113.5787 320° Northwest  Level Estimated
Thu 03:49:00 AM 34.8587 113.4910 320° Northwest  Level Estimated
Thu 03:50:00 AM 34.9433 113.4031 320° Northwest  Level Estimated
Thu 03:51:00 AM 35.0278 113.3149 320° Northwest  Level Estimated
Thu 03:52:00 AM 35.1123 113.2267 319° Northwest  Level Estimated
Thu 03:53:00 AM 35.1967 113.1382 319° Northwest  Level Estimated
Thu 03:54:00 AM 35.2811 113.0495 319° Northwest  Level Estimated
Thu 03:55:00 AM 35.3653 112.9607 319° Northwest  Level Estimated
Thu 03:56:00 AM 35.4496 112.8717 319° Northwest  Level Estimated
Thu 03:57:00 AM 35.5337 112.7824 319° Northwest  Level Estimated
Thu 03:58:00 AM 35.6178 112.6930 319° Northwest  Level Estimated
Thu 03:59:00 AM 35.7018 112.6035 319° Northwest  Level Estimated
Thu 04:00:00 AM 35.7858 112.5137 319° Northwest  Level Estimated
Thu 04:01:00 AM 35.8697 112.4237 319° Northwest  Level Estimated
Thu 04:02:00 AM 35.9535 112.3335 319° Northwest  Level Estimated
Thu 04:03:00 AM 36.0372 112.2432 319° Northwest  Level Estimated
Thu 04:04:00 AM 36.1209 112.1527 319° Northwest  Level Estimated
Thu 04:05:00 AM 36.2045 112.0619 319° Northwest  Level Estimated
Thu 04:06:00 AM 36.2881 111.9710 319° Northwest  Level Estimated
Thu 04:07:00 AM 36.3715 111.8799 319° Northwest  Level Estimated
Thu 04:08:00 AM 36.4549 111.7886 319° Northwest  Level Estimated
Thu 04:09:00 AM 36.5383 111.6970 319° Northwest  Level Estimated
Thu 04:10:00 AM 36.6216 111.6053 319° Northwest  Level Estimated
Thu 04:11:00 AM 36.7048 111.5134 318° Northwest  Level Estimated
Thu 04:12:00 AM 36.7879 111.4213 318° Northwest  Level Estimated
Thu 04:13:00 AM 36.8709 111.3290 318° Northwest  Level Estimated
Thu 04:14:00 AM 36.9539 111.2365 318° Northwest  Level Estimated
Thu 04:15:00 AM 37.0368 111.1438 318° Northwest  Level Estimated
Thu 04:16:00 AM 37.1197 111.0509 318° Northwest  Level Estimated
Thu 04:17:00 AM 37.2024 110.9577 318° Northwest  Level Estimated
Thu 04:18:00 AM 37.2851 110.8644 318° Northwest  Level Estimated
Thu 04:19:00 AM 37.3677 110.7709 318° Northwest  Level Estimated
Thu 04:20:00 AM 37.4503 110.6771 318° Northwest  Level Estimated
Thu 04:21:00 AM 37.5327 110.5832 318° Northwest  Level Estimated
Thu 04:22:00 AM 37.6152 110.4891 318° Northwest  Level Estimated
Thu 04:23:00 AM 37.6975 110.3947 318° Northwest  Level Estimated
Thu 04:24:00 AM 37.7797 110.3001 318° Northwest  Level Estimated
Thu 04:25:00 AM 37.8619 110.2054 318° Northwest  Level Estimated
Thu 04:26:00 AM 37.9440 110.1104 318° Northwest  Level Estimated
Thu 04:27:00 AM 38.0260 110.0152 318° Northwest  Level Estimated
Thu 04:28:00 AM 38.1079 109.9197 318° Northwest  Level Estimated
Thu 04:29:00 AM 38.1898 109.8241 317° Northwest  Level Estimated
Thu 04:30:00 AM 38.2692 109.7311 317° Northwest  Level Estimated
Thu 04:31:00 AM 38.2692 109.7311 165° South  Level Estimated
Thu 04:32:00 AM 38.2692 109.7311 165° South  Level Estimated
Thu 04:33:00 AM 38.2692 109.7311 165° South  Level Estimated
Thu 04:34:00 AM 38.2692 109.7311 165° South  Level Estimated
Thu 04:35:00 AM 38.2692 109.7311 165° South  Level Estimated
Thu 04:36:00 AM 38.2692 109.7311 165° South  Level Estimated
Thu 04:37:00 AM 38.2692 109.7311 165° South  Level Estimated
Thu 04:38:00 AM 38.2692 109.7311 165° South  Level Estimated
Thu 04:39:00 AM 38.2692 109.7311 165° South  Level Estimated
Thu 04:40:00 AM 38.2692 109.7311 165° South  Level Estimated
Thu 04:41:00 AM 38.2692 109.7311 165° South  Level Estimated
Thu 04:42:00 AM 38.2692 109.7311 165° South  Level Estimated
Thu 04:43:00 AM 38.2692 109.7311 165° South  Level Estimated
Thu 04:44:00 AM 38.2692 109.7311 165° South  Level Estimated
Thu 04:45:00 AM 38.2692 109.7311 165° South  Level Estimated
Thu 04:46:00 AM 38.2692 109.7311 165° South  Level Estimated

Login

Don't have an account? Register now (free) for customized features, flight alerts, and more!